sensor_id;sensor_type;location;lat;lon;timestamp;pressure;altitude;pressure_sealevel;temperature;humidity
5753;BME280;2901;42.140;24.760;2023-11-19T00:00:50;99215.75;;;7.27;77.67
5753;BME280;2901;42.140;24.760;2023-11-19T00:03:16;99211.44;;;7.29;77.06
5753;BME280;2901;42.140;24.760;2023-11-19T00:05:41;99235.47;;;7.31;77.16
5753;BME280;2901;42.140;24.760;2023-11-19T00:08:07;99240.63;;;7.31;77.61
5753;BME280;2901;42.140;24.760;2023-11-19T00:10:34;99227.78;;;7.30;77.48
5753;BME280;2901;42.140;24.760;2023-11-19T00:12:59;99212.31;;;7.24;77.52
5753;BME280;2901;42.140;24.760;2023-11-19T00:15:24;99217.47;;;7.27;78.21
5753;BME280;2901;42.140;24.760;2023-11-19T00:17:50;99250.09;;;7.29;78.04
5753;BME280;2901;42.140;24.760;2023-11-19T00:20:17;99209.75;;;7.30;77.49
5753;BME280;2901;42.140;24.760;2023-11-19T00:22:44;99213.16;;;7.29;78.23
5753;BME280;2901;42.140;24.760;2023-11-19T00:25:11;99226.88;;;7.25;78.96
5753;BME280;2901;42.140;24.760;2023-11-19T00:27:36;99231.16;;;7.24;79.05
5753;BME280;2901;42.140;24.760;2023-11-19T00:30:05;99228.59;;;7.20;79.22
5753;BME280;2901;42.140;24.760;2023-11-19T00:32:34;99234.59;;;7.25;79.94
5753;BME280;2901;42.140;24.760;2023-11-19T00:35:00;99238.91;;;7.23;79.52
5753;BME280;2901;42.140;24.760;2023-11-19T00:37:26;99233.75;;;7.24;79.06
5753;BME280;2901;42.140;24.760;2023-11-19T00:39:51;99261.22;;;7.25;78.67
5753;BME280;2901;42.140;24.760;2023-11-19T00:42:17;99232.91;;;7.28;78.91
5753;BME280;2901;42.140;24.760;2023-11-19T00:44:42;99253.50;;;7.28;78.56
5753;BME280;2901;42.140;24.760;2023-11-19T00:47:08;99244.06;;;7.29;78.71
5753;BME280;2901;42.140;24.760;2023-11-19T00:49:33;99290.44;;;7.27;78.02
5753;BME280;2901;42.140;24.760;2023-11-19T00:51:59;99256.06;;;7.28;78.65
5753;BME280;2901;42.140;24.760;2023-11-19T00:54:25;99249.22;;;7.27;78.60
5753;BME280;2901;42.140;24.760;2023-11-19T00:56:54;99245.78;;;7.28;79.04
5753;BME280;2901;42.140;24.760;2023-11-19T00:59:19;99251.78;;;7.29;78.83
5753;BME280;2901;42.140;24.760;2023-11-19T01:01:45;99263.81;;;7.30;79.11
5753;BME280;2901;42.140;24.760;2023-11-19T01:04:13;99262.13;;;7.30;78.99
5753;BME280;2901;42.140;24.760;2023-11-19T01:06:38;99259.53;;;7.30;78.97
5753;BME280;2901;42.140;24.760;2023-11-19T01:09:04;99259.53;;;7.30;79.45
5753;BME280;2901;42.140;24.760;2023-11-19T01:11:29;99247.50;;;7.29;79.64
5753;BME280;2901;42.140;24.760;2023-11-19T01:13:54;99252.66;;;7.29;79.51
5753;BME280;2901;42.140;24.760;2023-11-19T01:16:20;99256.09;;;7.30;79.74
5753;BME280;2901;42.140;24.760;2023-11-19T01:18:49;99251.78;;;7.24;79.50
5753;BME280;2901;42.140;24.760;2023-11-19T01:21:15;99265.50;;;7.25;79.81
5753;BME280;2901;42.140;24.760;2023-11-19T01:23:41;99278.38;;;7.20;80.35
5753;BME280;2901;42.140;24.760;2023-11-19T01:26:11;99277.50;;;7.21;80.29
5753;BME280;2901;42.140;24.760;2023-11-19T01:28:37;99254.34;;;7.23;80.66
5753;BME280;2901;42.140;24.760;2023-11-19T01:31:04;99264.63;;;7.18;79.85
5753;BME280;2901;42.140;24.760;2023-11-19T01:33:30;99268.94;;;7.22;nan
5753;BME280;2901;42.140;24.760;2023-11-19T01:35:56;99258.63;;;7.19;79.48
5753;BME280;2901;42.140;24.760;2023-11-19T01:38:24;99250.06;;;7.20;79.77
5753;BME280;2901;42.140;24.760;2023-11-19T01:40:49;99267.22;;;7.18;80.18
5753;BME280;2901;42.140;24.760;2023-11-19T01:43:37;99257.78;;;7.20;79.81
5753;BME280;2901;42.140;24.760;2023-11-19T01:46:04;99253.47;;;7.18;80.07
5753;BME280;2901;42.140;24.760;2023-11-19T01:48:32;99268.09;;;7.17;80.28
5753;BME280;2901;42.140;24.760;2023-11-19T01:50:58;99245.75;;;7.18;80.17
5753;BME280;2901;42.140;24.760;2023-11-19T01:53:24;99272.34;;;7.18;79.98
5753;BME280;2901;42.140;24.760;2023-11-19T01:55:50;99250.06;;;7.20;81.09
5753;BME280;2901;42.140;24.760;2023-11-19T01:58:16;99261.19;;;7.18;80.25
5753;BME280;2901;42.140;24.760;2023-11-19T02:00:43;99270.66;;;7.20;80.36
5753;BME280;2901;42.140;24.760;2023-11-19T02:03:09;99275.81;;;7.22;80.44
5753;BME280;2901;42.140;24.760;2023-11-19T02:05:35;99291.22;;;7.16;80.99
5753;BME280;2901;42.140;24.760;2023-11-19T02:08:02;99284.38;;;7.19;80.44
5753;BME280;2901;42.140;24.760;2023-11-19T02:10:28;99263.78;;;7.13;80.57
5753;BME280;2901;42.140;24.760;2023-11-19T02:12:53;99281.78;;;7.18;80.08
5753;BME280;2901;42.140;24.760;2023-11-19T02:15:20;99256.06;;;7.19;nan
5753;BME280;2901;42.140;24.760;2023-11-19T02:17:47;99296.41;;;7.17;79.91
5753;BME280;2901;42.140;24.760;2023-11-19T02:20:12;99264.66;;;7.20;79.86
5753;BME280;2901;42.140;24.760;2023-11-19T02:22:40;99267.22;;;7.18;79.80
5753;BME280;2901;42.140;24.760;2023-11-19T02:25:23;99269.78;;;7.17;80.70
5753;BME280;2901;42.140;24.760;2023-11-19T02:27:58;99284.34;;;7.12;79.98
5753;BME280;2901;42.140;24.760;2023-11-19T02:30:25;99285.22;;;7.12;80.59
5753;BME280;2901;42.140;24.760;2023-11-19T02:33:09;99287.78;;;7.12;79.96
5753;BME280;2901;42.140;24.760;2023-11-19T02:35:34;99287.78;;;7.12;80.96
5753;BME280;2901;42.140;24.760;2023-11-19T02:38:00;99283.53;;;7.14;80.42
5753;BME280;2901;42.140;24.760;2023-11-19T02:40:32;99297.22;;;7.15;80.62
5753;BME280;2901;42.140;24.760;2023-11-19T02:42:57;99309.25;;;7.16;80.66
5753;BME280;2901;42.140;24.760;2023-11-19T02:45:23;99302.41;;;7.16;79.72
5753;BME280;2901;42.140;24.760;2023-11-19T02:47:49;99308.41;;;7.17;79.98
5753;BME280;2901;42.140;24.760;2023-11-19T02:50:15;99314.44;;;7.20;79.04
5753;BME280;2901;42.140;24.760;2023-11-19T02:52:41;99279.22;;;7.16;79.77
5753;BME280;2901;42.140;24.760;2023-11-19T02:55:11;99271.50;;;7.13;79.62
5753;BME280;2901;42.140;24.760;2023-11-19T02:57:44;99287.81;;;7.14;80.23
5753;BME280;2901;42.140;24.760;2023-11-19T03:00:31;99296.41;;;7.14;79.99
5753;BME280;2901;42.140;24.760;2023-11-19T03:03:01;99287.81;;;7.14;78.92
5753;BME280;2901;42.140;24.760;2023-11-19T03:05:42;99279.22;;;7.15;79.87
5753;BME280;2901;42.140;24.760;2023-11-19T03:08:09;99285.22;;;7.14;79.29
5753;BME280;2901;42.140;24.760;2023-11-19T03:10:35;99292.09;;;7.13;80.02
5753;BME280;2901;42.140;24.760;2023-11-19T03:13:01;99282.63;;;7.12;79.34
5753;BME280;2901;42.140;24.760;2023-11-19T03:15:28;99268.91;;;7.15;79.06
5753;BME280;2901;42.140;24.760;2023-11-19T03:17:53;99274.91;;;7.12;78.30
5753;BME280;2901;42.140;24.760;2023-11-19T03:20:19;99271.47;;;7.12;80.06
5753;BME280;2901;42.140;24.760;2023-11-19T03:22:46;99267.19;;;7.06;79.29
5753;BME280;2901;42.140;24.760;2023-11-19T03:25:11;99271.47;;;7.06;80.74
5753;BME280;2901;42.140;24.760;2023-11-19T03:27:39;99263.75;;;7.01;81.01
5753;BME280;2901;42.140;24.760;2023-11-19T03:30:10;99274.00;;;6.98;81.61
5753;BME280;2901;42.140;24.760;2023-11-19T03:32:36;99280.84;;;6.93;81.80
5753;BME280;2901;42.140;24.760;2023-11-19T03:35:02;99279.97;;;6.88;82.46
5753;BME280;2901;42.140;24.760;2023-11-19T03:37:29;99281.66;;;6.82;82.81
5753;BME280;2901;42.140;24.760;2023-11-19T03:39:55;99285.94;;;6.79;82.45
5753;BME280;2901;42.140;24.760;2023-11-19T03:42:25;99265.34;;;6.78;83.12
5753;BME280;2901;42.140;24.760;2023-11-19T03:44:52;99267.03;;;6.79;82.70
5753;BME280;2901;42.140;24.760;2023-11-19T03:47:17;99287.63;;;6.79;83.00
5753;BME280;2901;42.140;24.760;2023-11-19T03:49:47;99276.44;;;6.72;82.76
5753;BME280;2901;42.140;24.760;2023-11-19T03:52:14;99267.91;;;6.75;82.92
5753;BME280;2901;42.140;24.760;2023-11-19T03:54:39;99278.19;;;6.76;81.74
5753;BME280;2901;42.140;24.760;2023-11-19T03:57:04;99247.25;;;6.66;81.67
5753;BME280;2901;42.140;24.760;2023-11-19T03:59:30;99267.00;;;6.67;81.10
5753;BME280;2901;42.140;24.760;2023-11-19T04:01:56;99309.91;;;6.74;80.78
5753;BME280;2901;42.140;24.760;2023-11-19T04:04:22;99296.25;;;6.81;80.90
5753;BME280;2901;42.140;24.760;2023-11-19T04:06:48;99315.13;;;6.86;79.81
5753;BME280;2901;42.140;24.760;2023-11-19T04:09:13;99279.91;;;6.76;79.93
5753;BME280;2901;42.140;24.760;2023-11-19T04:11:39;99293.66;;;6.81;79.95
5753;BME280;2901;42.140;24.760;2023-11-19T04:14:05;99315.13;;;6.86;79.83
5753;BME280;2901;42.140;24.760;2023-11-19T04:16:30;99324.56;;;6.92;79.19
5753;BME280;2901;42.140;24.760;2023-11-19T04:18:56;99308.31;;;6.94;78.96
5753;BME280;2901;42.140;24.760;2023-11-19T04:21:21;99333.19;;;6.97;78.12
5753;BME280;2901;42.140;24.760;2023-11-19T04:23:48;99322.91;;;6.97;78.44
5753;BME280;2901;42.140;24.760;2023-11-19T04:26:14;99310.88;;;6.99;77.30
5753;BME280;2901;42.140;24.760;2023-11-19T04:28:39;99309.19;;;7.02;77.08
5753;BME280;2901;42.140;24.760;2023-11-19T04:31:05;99324.66;;;7.01;76.88
5753;BME280;2901;42.140;24.760;2023-11-19T04:33:31;99322.91;;;6.97;78.07
5753;BME280;2901;42.140;24.760;2023-11-19T04:35:56;99340.88;;;6.89;77.96
5753;BME280;2901;42.140;24.760;2023-11-19T04:38:22;99322.81;;;6.83;79.00
5753;BME280;2901;42.140;24.760;2023-11-19T04:40:47;99331.41;;;6.84;79.45
5753;BME280;2901;42.140;24.760;2023-11-19T04:43:12;99330.50;;;6.78;80.14
5753;BME280;2901;42.140;24.760;2023-11-19T04:45:38;99325.31;;;6.65;81.75
5753;BME280;2901;42.140;24.760;2023-11-19T04:48:05;99341.56;;;6.58;81.41
5753;BME280;2901;42.140;24.760;2023-11-19T04:50:30;99324.38;;;6.54;82.63
5753;BME280;2901;42.140;24.760;2023-11-19T04:52:56;99343.16;;;6.47;81.94
5753;BME280;2901;42.140;24.760;2023-11-19T04:55:21;99343.09;;;6.38;82.50
5753;BME280;2901;42.140;24.760;2023-11-19T04:57:47;99319.13;;;6.39;82.08
5753;BME280;2901;42.140;24.760;2023-11-19T05:00:13;99332.00;;;6.42;82.42
5753;BME280;2901;42.140;24.760;2023-11-19T05:02:38;99329.41;;;6.39;82.35
5753;BME280;2901;42.140;24.760;2023-11-19T05:05:04;99340.53;;;6.35;82.58
5753;BME280;2901;42.140;24.760;2023-11-19T05:07:30;99327.63;;;6.33;82.63
5753;BME280;2901;42.140;24.760;2023-11-19T05:09:56;99320.78;;;6.31;81.98
5753;BME280;2901;42.140;24.760;2023-11-19T05:12:21;99351.63;;;6.31;81.89
5753;BME280;2901;42.140;24.760;2023-11-19T05:14:48;99321.63;;;6.28;81.61
5753;BME280;2901;42.140;24.760;2023-11-19T05:17:17;99328.47;;;6.31;81.69
5753;BME280;2901;42.140;24.760;2023-11-19T05:19:43;99329.31;;;6.26;81.36
5753;BME280;2901;42.140;24.760;2023-11-19T05:22:09;99396.16;;;6.26;81.80
5753;BME280;2901;42.140;24.760;2023-11-19T05:24:34;99324.97;;;6.22;81.94
5753;BME280;2901;42.140;24.760;2023-11-19T05:27:01;99350.63;;;6.16;82.71
5753;BME280;2901;42.140;24.760;2023-11-19T05:29:27;99351.53;;;6.18;82.06
5753;BME280;2901;42.140;24.760;2023-11-19T05:31:52;99355.78;;;6.16;82.35
5753;BME280;2901;42.140;24.760;2023-11-19T05:34:17;99341.22;;;6.17;82.41
5753;BME280;2901;42.140;24.760;2023-11-19T05:36:43;99354.88;;;6.11;83.11
5753;BME280;2901;42.140;24.760;2023-11-19T05:39:08;99366.03;;;6.13;82.21
5753;BME280;2901;42.140;24.760;2023-11-19T05:41:34;99372.03;;;6.12;82.49
5753;BME280;2901;42.140;24.760;2023-11-19T05:43:59;99371.19;;;6.12;82.62
5753;BME280;2901;42.140;24.760;2023-11-19T05:46:24;99366.06;;;6.15;82.37
5753;BME280;2901;42.140;24.760;2023-11-19T05:48:52;99380.66;;;6.17;82.65
5753;BME280;2901;42.140;24.760;2023-11-19T05:51:18;99372.09;;;6.18;81.85
5753;BME280;2901;42.140;24.760;2023-11-19T05:53:43;99431.25;;;6.21;81.67
5753;BME280;2901;42.140;24.760;2023-11-19T05:56:11;99373.91;;;6.29;81.46
5753;BME280;2901;42.140;24.760;2023-11-19T05:58:36;99372.16;;;6.28;81.34
5753;BME280;2901;42.140;24.760;2023-11-19T06:01:02;99392.78;;;6.32;80.52
5753;BME280;2901;42.140;24.760;2023-11-19T06:03:28;99403.13;;;6.38;80.67
5753;BME280;2901;42.140;24.760;2023-11-19T06:05:54;99355.16;;;6.43;80.08
5753;BME280;2901;42.140;24.760;2023-11-19T06:08:20;99373.19;;;6.48;80.41
5753;BME280;2901;42.140;24.760;2023-11-19T06:10:46;99368.06;;;6.51;79.64
5753;BME280;2901;42.140;24.760;2023-11-19T06:13:12;99397.22;;;6.51;79.81
5753;BME280;2901;42.140;24.760;2023-11-19T06:15:43;99367.19;;;6.49;79.80
5753;BME280;2901;42.140;24.760;2023-11-19T06:18:08;99394.66;;;6.56;80.04
5753;BME280;2901;42.140;24.760;2023-11-19T06:20:35;99391.25;;;6.54;80.13
5753;BME280;2901;42.140;24.760;2023-11-19T06:23:00;99405.03;;;6.63;78.85
5753;BME280;2901;42.140;24.760;2023-11-19T06:25:26;99398.97;;;6.57;79.29
5753;BME280;2901;42.140;24.760;2023-11-19T06:27:52;99403.38;;;6.70;78.50
5753;BME280;2901;42.140;24.760;2023-11-19T06:30:17;99405.13;;;6.78;79.01
5753;BME280;2901;42.140;24.760;2023-11-19T06:32:43;99415.50;;;6.85;78.65
5753;BME280;2901;42.140;24.760;2023-11-19T06:35:08;99406.03;;;6.85;78.84
5753;BME280;2901;42.140;24.760;2023-11-19T06:37:35;99407.84;;;6.98;78.15
5753;BME280;2901;42.140;24.760;2023-11-19T06:40:01;99415.63;;;7.07;77.58
5753;BME280;2901;42.140;24.760;2023-11-19T06:42:27;99427.66;;;7.11;76.94
5753;BME280;2901;42.140;24.760;2023-11-19T06:44:52;99425.13;;;7.19;77.06
5753;BME280;2901;42.140;24.760;2023-11-19T06:47:18;99434.56;;;7.14;76.70
5753;BME280;2901;42.140;24.760;2023-11-19T06:49:44;99432.00;;;7.14;76.10
5753;BME280;2901;42.140;24.760;2023-11-19T06:52:09;99450.03;;;7.18;76.70
5753;BME280;2901;42.140;24.760;2023-11-19T06:54:35;99431.13;;;7.18;76.33
5753;BME280;2901;42.140;24.760;2023-11-19T06:57:00;99432.03;;;7.23;76.33
5753;BME280;2901;42.140;24.760;2023-11-19T06:59:26;99431.19;;;7.28;76.62
5753;BME280;2901;42.140;24.760;2023-11-19T07:01:51;99436.44;;;7.41;75.97
5753;BME280;2901;42.140;24.760;2023-11-19T07:04:16;99422.72;;;7.49;75.05
5753;BME280;2901;42.140;24.760;2023-11-19T07:06:42;99427.06;;;7.56;74.57
5753;BME280;2901;42.140;24.760;2023-11-19T07:09:09;99415.03;;;7.58;73.75
5753;BME280;2901;42.140;24.760;2023-11-19T07:11:43;99398.72;;;7.61;73.26
5753;BME280;2901;42.140;24.760;2023-11-19T07:14:10;99389.31;;;7.66;73.03
5753;BME280;2901;42.140;24.760;2023-11-19T07:16:36;99372.97;;;7.62;73.14
5753;BME280;2901;42.140;24.760;2023-11-19T07:19:05;99376.44;;;7.70;72.89
5753;BME280;2901;42.140;24.760;2023-11-19T07:21:31;99376.44;;;7.70;72.51
5753;BME280;2901;42.140;24.760;2023-11-19T07:23:58;99401.38;;;7.85;72.91
5753;BME280;2901;42.140;24.760;2023-11-19T07:26:23;99437.47;;;7.88;72.69
5753;BME280;2901;42.140;24.760;2023-11-19T07:28:49;99444.38;;;7.92;71.76
5753;BME280;2901;42.140;24.760;2023-11-19T07:31:15;99473.66;;;8.06;72.37
5753;BME280;2901;42.140;24.760;2023-11-19T07:33:40;99472.81;;;8.19;71.30
5753;BME280;2901;42.140;24.760;2023-11-19T07:36:10;99468.53;;;8.20;70.73
5753;BME280;2901;42.140;24.760;2023-11-19T07:38:36;99471.94;;;8.23;69.56
5753;BME280;2901;42.140;24.760;2023-11-19T07:41:01;99454.75;;;8.16;68.97
5753;BME280;2901;42.140;24.760;2023-11-19T07:43:27;99454.72;;;8.10;69.10
5753;BME280;2901;42.140;24.760;2023-11-19T07:45:52;99466.78;;;8.14;69.08
5753;BME280;2901;42.140;24.760;2023-11-19T07:48:18;99453.03;;;8.15;68.40
5753;BME280;2901;42.140;24.760;2023-11-19T07:50:48;99487.41;;;8.17;68.69
5753;BME280;2901;42.140;24.760;2023-11-19T07:53:16;99462.47;;;8.12;68.22
5753;BME280;2901;42.140;24.760;2023-11-19T07:55:41;99491.75;;;8.26;67.91
5753;BME280;2901;42.140;24.760;2023-11-19T07:58:06;99502.97;;;8.32;68.14
5753;BME280;2901;42.140;24.760;2023-11-19T08:00:32;99513.31;;;8.36;67.35
5753;BME280;2901;42.140;24.760;2023-11-19T08:02:57;99509.00;;;8.44;66.46
5753;BME280;2901;42.140;24.760;2023-11-19T08:05:22;99494.41;;;8.46;66.67
5753;BME280;2901;42.140;24.760;2023-11-19T08:07:50;99493.56;;;8.57;66.53
5753;BME280;2901;42.140;24.760;2023-11-19T08:10:16;99499.59;;;8.70;65.64
5753;BME280;2901;42.140;24.760;2023-11-19T08:12:41;99505.63;;;8.78;65.49
5753;BME280;2901;42.140;24.760;2023-11-19T08:15:07;99504.75;;;8.80;64.39
5753;BME280;2901;42.140;24.760;2023-11-19T08:17:33;99493.53;;;8.48;65.29
5753;BME280;2901;42.140;24.760;2023-11-19T08:19:58;99527.97;;;8.55;65.38
5753;BME280;2901;42.140;24.760;2023-11-19T08:22:25;99546.06;;;8.65;65.04
5753;BME280;2901;42.140;24.760;2023-11-19T08:24:51;99531.41;;;8.57;65.44
5753;BME280;2901;42.140;24.760;2023-11-19T08:27:16;99527.97;;;8.64;65.24
5753;BME280;2901;42.140;24.760;2023-11-19T08:29:42;99532.28;;;8.80;64.54
5753;BME280;2901;42.140;24.760;2023-11-19T08:32:07;99530.59;;;8.83;64.50
5753;BME280;2901;42.140;24.760;2023-11-19T08:34:32;99530.59;;;8.94;64.22
5753;BME280;2901;42.140;24.760;2023-11-19T08:36:59;99528.84;;;9.16;64.26
5753;BME280;2901;42.140;24.760;2023-11-19T08:39:24;99527.16;;;9.10;63.01
5753;BME280;2901;42.140;24.760;2023-11-19T08:41:50;99520.28;;;9.08;63.30
5753;BME280;2901;42.140;24.760;2023-11-19T08:44:16;99534.88;;;8.97;63.57
5753;BME280;2901;42.140;24.760;2023-11-19T08:46:48;99538.34;;;8.99;63.82
5753;BME280;2901;42.140;24.760;2023-11-19T08:49:14;99548.66;;;8.94;63.42
5753;BME280;2901;42.140;24.760;2023-11-19T08:51:39;99540.91;;;9.00;62.98
5753;BME280;2901;42.140;24.760;2023-11-19T08:54:05;99546.97;;;8.92;63.41
5753;BME280;2901;42.140;24.760;2023-11-19T08:56:30;99545.19;;;8.74;63.68
5753;BME280;2901;42.140;24.760;2023-11-19T08:58:58;99540.88;;;8.76;64.09
5753;BME280;2901;42.140;24.760;2023-11-19T09:01:23;99564.06;;;8.56;64.72
5753;BME280;2901;42.140;24.760;2023-11-19T09:03:50;99540.88;;;8.58;64.63
5753;BME280;2901;42.140;24.760;2023-11-19T09:06:15;99545.19;;;8.63;64.29
5753;BME280;2901;42.140;24.760;2023-11-19T09:08:42;99546.91;;;8.67;63.10
5753;BME280;2901;42.140;24.760;2023-11-19T09:11:08;99523.69;;;8.78;62.64
5753;BME280;2901;42.140;24.760;2023-11-19T09:13:37;99535.75;;;8.79;63.06
5753;BME280;2901;42.140;24.760;2023-11-19T09:16:02;99525.41;;;8.67;62.99
5753;BME280;2901;42.140;24.760;2023-11-19T09:18:29;99512.50;;;8.70;62.35
5753;BME280;2901;42.140;24.760;2023-11-19T09:20:55;99587.34;;;8.73;61.96
5753;BME280;2901;42.140;24.760;2023-11-19T09:23:20;99497.88;;;8.61;62.90
5753;BME280;2901;42.140;24.760;2023-11-19T09:25:46;99489.25;;;8.67;62.17
5753;BME280;2901;42.140;24.760;2023-11-19T09:28:11;99509.06;;;8.65;62.73
5753;BME280;2901;42.140;24.760;2023-11-19T09:30:36;99513.38;;;8.96;62.39
5753;BME280;2901;42.140;24.760;2023-11-19T09:33:02;99529.75;;;9.07;61.12
5753;BME280;2901;42.140;24.760;2023-11-19T09:35:27;99544.38;;;9.17;60.61
5753;BME280;2901;42.140;24.760;2023-11-19T09:37:53;99538.34;;;9.26;60.60
5753;BME280;2901;42.140;24.760;2023-11-19T09:40:18;99523.69;;;9.29;59.25
5753;BME280;2901;42.140;24.760;2023-11-19T09:42:44;99544.34;;;9.38;59.06
5753;BME280;2901;42.140;24.760;2023-11-19T09:45:14;99536.59;;;9.40;58.86
5753;BME280;2901;42.140;24.760;2023-11-19T09:47:46;99525.41;;;9.30;58.35
5753;BME280;2901;42.140;24.760;2023-11-19T09:50:17;99534.88;;;9.42;58.30
5753;BME280;2901;42.140;24.760;2023-11-19T09:52:47;99515.09;;;9.06;58.77
5753;BME280;2901;42.140;24.760;2023-11-19T09:55:12;99530.59;;;9.14;59.57
5753;BME280;2901;42.140;24.760;2023-11-19T09:57:39;99568.47;;;9.22;59.41
5753;BME280;2901;42.140;24.760;2023-11-19T10:00:06;99540.06;;;9.18;58.74
5753;BME280;2901;42.140;24.760;2023-11-19T10:02:33;99528.03;;;9.11;59.16
5753;BME280;2901;42.140;24.760;2023-11-19T10:05:06;99546.97;;;9.11;59.26
5753;BME280;2901;42.140;24.760;2023-11-19T10:07:32;99549.53;;;9.20;58.88
5753;BME280;2901;42.140;24.760;2023-11-19T10:10:02;99537.47;;;9.25;59.22
5753;BME280;2901;42.140;24.760;2023-11-19T10:12:29;99537.47;;;9.39;58.88
5753;BME280;2901;42.140;24.760;2023-11-19T10:14:56;99522.81;;;9.53;58.71
5753;BME280;2901;42.140;24.760;2023-11-19T10:17:27;99550.38;;;9.54;57.94
5753;BME280;2901;42.140;24.760;2023-11-19T10:19:54;99511.63;;;9.37;58.71
5753;BME280;2901;42.140;24.760;2023-11-19T10:22:20;99497.81;;;9.46;58.29
5753;BME280;2901;42.140;24.760;2023-11-19T10:24:45;99496.94;;;9.58;56.99
5753;BME280;2901;42.140;24.760;2023-11-19T10:27:10;99513.31;;;9.55;57.56
5753;BME280;2901;42.140;24.760;2023-11-19T10:29:39;99486.63;;;9.53;57.55
5753;BME280;2901;42.140;24.760;2023-11-19T10:32:04;99506.47;;;9.41;57.56
5753;BME280;2901;42.140;24.760;2023-11-19T10:34:30;99501.25;;;9.65;58.26
5753;BME280;2901;42.140;24.760;2023-11-19T10:36:55;99493.41;;;9.81;56.32
5753;BME280;2901;42.140;24.760;2023-11-19T10:39:21;99483.16;;;9.57;57.52
5753;BME280;2901;42.140;24.760;2023-11-19T10:41:48;99470.25;;;9.54;57.05
5753;BME280;2901;42.140;24.760;2023-11-19T10:44:31;99475.41;;;9.50;57.83
5753;BME280;2901;42.140;24.760;2023-11-19T10:46:56;99477.97;;;9.56;57.82
5753;BME280;2901;42.140;24.760;2023-11-19T10:49:22;99487.41;;;9.75;57.59
5753;BME280;2901;42.140;24.760;2023-11-19T10:51:48;99483.06;;;9.86;57.14
5753;BME280;2901;42.140;24.760;2023-11-19T10:54:18;99471.84;;;9.87;56.19
5753;BME280;2901;42.140;24.760;2023-11-19T10:56:44;99470.03;;;10.07;56.21
5753;BME280;2901;42.140;24.760;2023-11-19T10:59:10;99475.16;;;10.22;55.31
5753;BME280;2901;42.140;24.760;2023-11-19T11:01:46;99465.72;;;10.09;55.28
5753;BME280;2901;42.140;24.760;2023-11-19T11:04:23;99480.41;;;9.98;55.63
5753;BME280;2901;42.140;24.760;2023-11-19T11:06:51;99469.28;;;9.84;55.15
5753;BME280;2901;42.140;24.760;2023-11-19T11:09:16;99490.00;;;9.78;55.37
5753;BME280;2901;42.140;24.760;2023-11-19T11:11:46;99483.09;;;9.72;55.43
5753;BME280;2901;42.140;24.760;2023-11-19T11:14:12;99492.56;;;9.76;56.11
5753;BME280;2901;42.140;24.760;2023-11-19T11:16:42;99494.28;;;9.79;56.26
5753;BME280;2901;42.140;24.760;2023-11-19T11:19:09;99488.28;;;9.77;55.80
5753;BME280;2901;42.140;24.760;2023-11-19T11:21:36;99483.91;;;9.85;55.27
5753;BME280;2901;42.140;24.760;2023-11-19T11:27:24;99451.19;;;9.84;55.56
5753;BME280;2901;42.140;24.760;2023-11-19T11:30:11;99460.59;;;9.97;55.68
5753;BME280;2901;42.140;24.760;2023-11-19T11:32:58;99438.09;;;10.14;55.56
5753;BME280;2901;42.140;24.760;2023-11-19T11:35:30;99445.00;;;10.17;55.35
5753;BME280;2901;42.140;24.760;2023-11-19T11:38:03;99425.16;;;10.13;54.81
5753;BME280;2901;42.140;24.760;2023-11-19T11:40:29;99419.97;;;10.11;53.51
5753;BME280;2901;42.140;24.760;2023-11-19T11:42:54;99401.88;;;10.17;53.85
5753;BME280;2901;42.140;24.760;2023-11-19T11:45:35;99422.59;;;10.17;53.88
5753;BME280;2901;42.140;24.760;2023-11-19T11:48:08;99402.78;;;10.07;54.40
5753;BME280;2901;42.140;24.760;2023-11-19T11:50:35;99420.00;;;10.10;54.26
5753;BME280;2901;42.140;24.760;2023-11-19T11:53:22;99388.09;;;10.17;54.61
5753;BME280;2901;42.140;24.760;2023-11-19T11:58:21;99391.47;;;10.25;52.99
5753;BME280;2901;42.140;24.760;2023-11-19T12:00:48;99399.19;;;10.32;53.06
5753;BME280;2901;42.140;24.760;2023-11-19T12:03:14;99382.78;;;10.36;53.32
5753;BME280;2901;42.140;24.760;2023-11-19T12:05:44;99399.16;;;10.35;52.54
5753;BME280;2901;42.140;24.760;2023-11-19T12:08:11;99376.00;;;10.19;53.21
5753;BME280;2901;42.140;24.760;2023-11-19T12:10:49;99366.56;;;10.07;53.99
5753;BME280;2901;42.140;24.760;2023-11-19T12:13:16;99367.34;;;10.21;53.80
5753;BME280;2901;42.140;24.760;2023-11-19T12:18:23;99387.19;;;10.19;53.53
5753;BME280;2901;42.140;24.760;2023-11-19T12:20:49;99397.56;;;10.13;53.73
5753;BME280;2901;42.140;24.760;2023-11-19T12:23:14;99384.66;;;10.06;54.67
5753;BME280;2901;42.140;24.760;2023-11-19T12:25:41;99379.50;;;10.03;55.07
5753;BME280;2901;42.140;24.760;2023-11-19T12:28:11;99369.22;;;9.97;55.41
5753;BME280;2901;42.140;24.760;2023-11-19T12:30:37;99368.22;;;10.11;55.22
5753;BME280;2901;42.140;24.760;2023-11-19T12:33:11;99373.47;;;10.05;55.17
5753;BME280;2901;42.140;24.760;2023-11-19T12:35:40;99376.00;;;10.16;55.19
5753;BME280;2901;42.140;24.760;2023-11-19T12:38:06;99366.44;;;10.25;55.34
5753;BME280;2901;42.140;24.760;2023-11-19T12:40:32;99369.94;;;10.18;55.07
5753;BME280;2901;42.140;24.760;2023-11-19T12:42:57;99363.94;;;10.09;55.87
5753;BME280;2901;42.140;24.760;2023-11-19T12:45:24;99345.81;;;10.18;55.93
5753;BME280;2901;42.140;24.760;2023-11-19T12:47:49;99362.13;;;10.27;55.57
5753;BME280;2901;42.140;24.760;2023-11-19T12:50:17;99364.72;;;10.24;55.56
5753;BME280;2901;42.140;24.760;2023-11-19T12:52:55;99372.53;;;10.20;56.25
5753;BME280;2901;42.140;24.760;2023-11-19T12:55:28;99365.66;;;10.16;55.52
5753;BME280;2901;42.140;24.760;2023-11-19T12:57:54;99355.34;;;10.07;56.22
5753;BME280;2901;42.140;24.760;2023-11-19T13:00:22;99366.53;;;10.16;56.66
5753;BME280;2901;42.140;24.760;2023-11-19T13:02:49;99368.19;;;10.22;56.70
5753;BME280;2901;42.140;24.760;2023-11-19T13:05:30;99369.13;;;10.09;56.29
5753;BME280;2901;42.140;24.760;2023-11-19T13:08:07;99390.69;;;10.05;56.28
5753;BME280;2901;42.140;24.760;2023-11-19T13:13:15;99363.94;;;10.12;56.42
5753;BME280;2901;42.140;24.760;2023-11-19T13:15:40;99351.84;;;10.12;56.09
5753;BME280;2901;42.140;24.760;2023-11-19T13:18:05;99334.53;;;10.25;56.65
5753;BME280;2901;42.140;24.760;2023-11-19T13:20:32;99347.44;;;10.31;55.87
5753;BME280;2901;42.140;24.760;2023-11-19T13:22:59;99349.19;;;10.30;56.18
5753;BME280;2901;42.140;24.760;2023-11-19T13:25:26;99337.13;;;10.25;55.68
5753;BME280;2901;42.140;24.760;2023-11-19T13:27:51;99341.53;;;10.14;56.27
5753;BME280;2901;42.140;24.760;2023-11-19T13:30:17;99339.78;;;10.16;56.67